sensor_id;sensor_type;location;lat;lon;timestamp;temperature;humidity
35645;DHT22;21764;52.042;6.830;2022-10-17T00:04:39;13.40;99.90
35645;DHT22;21764;52.042;6.830;2022-10-17T00:09:43;13.60;99.90
35645;DHT22;21764;52.042;6.830;2022-10-17T00:14:44;13.50;99.90
35645;DHT22;21764;52.042;6.830;2022-10-17T00:19:45;13.60;99.90
35645;DHT22;21764;52.042;6.830;2022-10-17T00:24:45;13.50;99.90
35645;DHT22;21764;52.042;6.830;2022-10-17T00:29:50;13.50;99.90
35645;DHT22;21764;52.042;6.830;2022-10-17T00:34:51;13.50;99.90
35645;DHT22;21764;52.042;6.830;2022-10-17T00:39:52;13.50;99.90
35645;DHT22;21764;52.042;6.830;2022-10-17T00:44:58;13.60;99.90
35645;DHT22;21764;52.042;6.830;2022-10-17T00:50:00;13.60;99.90
35645;DHT22;21764;52.042;6.830;2022-10-17T00:55:11;13.60;99.90
35645;DHT22;21764;52.042;6.830;2022-10-17T01:00:14;13.60;99.90
35645;DHT22;21764;52.042;6.830;2022-10-17T01:05:16;13.70;99.90
35645;DHT22;21764;52.042;6.830;2022-10-17T01:10:18;13.60;99.90
35645;DHT22;21764;52.042;6.830;2022-10-17T01:21:28;13.60;99.90
35645;DHT22;21764;52.042;6.830;2022-10-17T01:37:45;13.80;99.90
35645;DHT22;21764;52.042;6.830;2022-10-17T01:47:50;14.00;99.90
35645;DHT22;21764;52.042;6.830;2022-10-17T01:52:58;14.10;99.90
35645;DHT22;21764;52.042;6.830;2022-10-17T01:58:09;14.10;99.90
35645;DHT22;21764;52.042;6.830;2022-10-17T02:03:16;14.20;99.90
35645;DHT22;21764;52.042;6.830;2022-10-17T02:08:30;14.20;99.90
35645;DHT22;21764;52.042;6.830;2022-10-17T02:24:27;14.20;99.90
35645;DHT22;21764;52.042;6.830;2022-10-17T02:29:35;14.30;99.90
35645;DHT22;21764;52.042;6.830;2022-10-17T02:34:44;14.30;99.90
35645;DHT22;21764;52.042;6.830;2022-10-17T02:39:46;14.40;99.90
35645;DHT22;21764;52.042;6.830;2022-10-17T02:44:48;14.40;99.90
35645;DHT22;21764;52.042;6.830;2022-10-17T02:49:51;14.40;99.90
35645;DHT22;21764;52.042;6.830;2022-10-17T02:55:02;14.40;99.90
35645;DHT22;21764;52.042;6.830;2022-10-17T03:00:08;14.40;99.90
35645;DHT22;21764;52.042;6.830;2022-10-17T03:05:12;14.40;99.90
35645;DHT22;21764;52.042;6.830;2022-10-17T03:10:13;14.30;99.90
35645;DHT22;21764;52.042;6.830;2022-10-17T03:15:14;14.40;99.90
35645;DHT22;21764;52.042;6.830;2022-10-17T03:20:15;14.30;99.90
35645;DHT22;21764;52.042;6.830;2022-10-17T03:25:15;14.30;99.90
35645;DHT22;21764;52.042;6.830;2022-10-17T03:30:16;14.30;99.90
35645;DHT22;21764;52.042;6.830;2022-10-17T03:35:17;14.20;99.90
35645;DHT22;21764;52.042;6.830;2022-10-17T03:40:17;14.30;99.90
35645;DHT22;21764;52.042;6.830;2022-10-17T03:45:18;14.30;99.90
35645;DHT22;21764;52.042;6.830;2022-10-17T03:50:19;14.30;99.90
35645;DHT22;21764;52.042;6.830;2022-10-17T03:55:19;14.30;99.90
35645;DHT22;21764;52.042;6.830;2022-10-17T04:00:20;14.40;99.90
35645;DHT22;21764;52.042;6.830;2022-10-17T04:05:21;14.40;99.90
35645;DHT22;21764;52.042;6.830;2022-10-17T04:10:21;14.60;99.90
35645;DHT22;21764;52.042;6.830;2022-10-17T04:15:22;14.50;99.90
35645;DHT22;21764;52.042;6.830;2022-10-17T04:20:22;14.60;99.90
35645;DHT22;21764;52.042;6.830;2022-10-17T04:25:23;14.50;99.90
35645;DHT22;21764;52.042;6.830;2022-10-17T04:30:24;14.70;99.90
35645;DHT22;21764;52.042;6.830;2022-10-17T04:35:24;14.70;99.90
35645;DHT22;21764;52.042;6.830;2022-10-17T04:40:25;14.70;99.90
35645;DHT22;21764;52.042;6.830;2022-10-17T04:45:26;14.80;99.90
35645;DHT22;21764;52.042;6.830;2022-10-17T04:50:26;14.90;99.90
35645;DHT22;21764;52.042;6.830;2022-10-17T04:55:27;15.00;99.90
35645;DHT22;21764;52.042;6.830;2022-10-17T05:00:28;15.10;99.90
35645;DHT22;21764;52.042;6.830;2022-10-17T05:05:29;15.10;99.90
35645;DHT22;21764;52.042;6.830;2022-10-17T05:10:34;15.10;99.90
35645;DHT22;21764;52.042;6.830;2022-10-17T05:15:36;15.30;99.90
35645;DHT22;21764;52.042;6.830;2022-10-17T05:20:36;15.30;99.90
35645;DHT22;21764;52.042;6.830;2022-10-17T05:25:37;15.40;99.90
35645;DHT22;21764;52.042;6.830;2022-10-17T05:30:38;15.50;99.90
35645;DHT22;21764;52.042;6.830;2022-10-17T05:35:38;15.60;99.90
35645;DHT22;21764;52.042;6.830;2022-10-17T05:40:39;15.60;99.90
35645;DHT22;21764;52.042;6.830;2022-10-17T05:45:40;15.80;99.90
35645;DHT22;21764;52.042;6.830;2022-10-17T05:50:40;15.80;99.90
35645;DHT22;21764;52.042;6.830;2022-10-17T05:55:41;15.90;99.90
35645;DHT22;21764;52.042;6.830;2022-10-17T06:00:42;15.90;99.90
35645;DHT22;21764;52.042;6.830;2022-10-17T06:05:44;15.90;99.90
35645;DHT22;21764;52.042;6.830;2022-10-17T06:10:48;15.80;99.90
35645;DHT22;21764;52.042;6.830;2022-10-17T06:15:49;15.70;99.90
35645;DHT22;21764;52.042;6.830;2022-10-17T06:20:51;15.80;99.90
35645;DHT22;21764;52.042;6.830;2022-10-17T06:25:51;15.80;99.90
35645;DHT22;21764;52.042;6.830;2022-10-17T06:30:52;15.90;99.90
35645;DHT22;21764;52.042;6.830;2022-10-17T06:35:54;16.10;99.90
35645;DHT22;21764;52.042;6.830;2022-10-17T06:41:02;16.20;99.90
35645;DHT22;21764;52.042;6.830;2022-10-17T06:46:04;16.40;99.90
35645;DHT22;21764;52.042;6.830;2022-10-17T06:51:06;16.60;99.90
35645;DHT22;21764;52.042;6.830;2022-10-17T06:56:09;16.60;99.90
35645;DHT22;21764;52.042;6.830;2022-10-17T07:01:11;16.70;99.90
35645;DHT22;21764;52.042;6.830;2022-10-17T07:06:12;17.70;99.90
35645;DHT22;21764;52.042;6.830;2022-10-17T07:11:15;19.60;99.90
35645;DHT22;21764;52.042;6.830;2022-10-17T07:16:16;18.80;99.90
35645;DHT22;21764;52.042;6.830;2022-10-17T07:21:17;18.60;99.90
35645;DHT22;21764;52.042;6.830;2022-10-17T07:26:18;19.10;99.90
35645;DHT22;21764;52.042;6.830;2022-10-17T07:31:20;19.50;99.90
35645;DHT22;21764;52.042;6.830;2022-10-17T07:36:21;20.10;99.90
35645;DHT22;21764;52.042;6.830;2022-10-17T07:41:22;20.50;99.90
35645;DHT22;21764;52.042;6.830;2022-10-17T07:46:23;19.40;99.90
35645;DHT22;21764;52.042;6.830;2022-10-17T07:51:23;19.20;99.90
35645;DHT22;21764;52.042;6.830;2022-10-17T07:56:24;19.80;99.90
35645;DHT22;21764;52.042;6.830;2022-10-17T08:01:25;21.30;99.90
35645;DHT22;21764;52.042;6.830;2022-10-17T08:06:27;22.70;99.90
35645;DHT22;21764;52.042;6.830;2022-10-17T08:11:28;21.40;99.90
35645;DHT22;21764;52.042;6.830;2022-10-17T08:16:28;20.40;99.90
35645;DHT22;21764;52.042;6.830;2022-10-17T08:21:29;22.30;99.90
35645;DHT22;21764;52.042;6.830;2022-10-17T08:26:30;20.90;99.90
35645;DHT22;21764;52.042;6.830;2022-10-17T08:31:31;21.50;99.90
35645;DHT22;21764;52.042;6.830;2022-10-17T08:36:31;22.40;99.90
35645;DHT22;21764;52.042;6.830;2022-10-17T08:46:51;19.90;99.90
35645;DHT22;21764;52.042;6.830;2022-10-17T08:52:02;19.50;99.90
35645;DHT22;21764;52.042;6.830;2022-10-17T08:57:03;20.10;99.90
35645;DHT22;21764;52.042;6.830;2022-10-17T09:02:33;21.60;99.90
35645;DHT22;21764;52.042;6.830;2022-10-17T09:18:14;20.20;99.90
35645;DHT22;21764;52.042;6.830;2022-10-17T09:23:25;20.10;99.90
35645;DHT22;21764;52.042;6.830;2022-10-17T09:28:38;19.80;99.90
35645;DHT22;21764;52.042;6.830;2022-10-17T09:33:50;19.70;99.90
35645;DHT22;21764;52.042;6.830;2022-10-17T09:38:54;19.80;99.90
35645;DHT22;21764;52.042;6.830;2022-10-17T09:43:56;19.70;99.90
35645;DHT22;21764;52.042;6.830;2022-10-17T09:49:09;19.60;99.90
35645;DHT22;21764;52.042;6.830;2022-10-17T09:54:21;19.30;99.90
35645;DHT22;21764;52.042;6.830;2022-10-17T09:59:34;19.30;99.90
35645;DHT22;21764;52.042;6.830;2022-10-17T10:04:34;19.20;99.90
35645;DHT22;21764;52.042;6.830;2022-10-17T10:09:36;19.10;99.90
35645;DHT22;21764;52.042;6.830;2022-10-17T10:14:37;18.90;99.90
35645;DHT22;21764;52.042;6.830;2022-10-17T10:19:48;18.80;99.90
35645;DHT22;21764;52.042;6.830;2022-10-17T10:25:14;18.80;99.90
35645;DHT22;21764;52.042;6.830;2022-10-17T10:30:17;18.80;99.90
35645;DHT22;21764;52.042;6.830;2022-10-17T10:35:34;18.60;99.90
35645;DHT22;21764;52.042;6.830;2022-10-17T10:40:44;18.60;99.90
35645;DHT22;21764;52.042;6.830;2022-10-17T10:45:45;18.80;99.90
35645;DHT22;21764;52.042;6.830;2022-10-17T10:50:51;18.60;99.90
35645;DHT22;21764;52.042;6.830;2022-10-17T10:56:00;18.30;99.90
35645;DHT22;21764;52.042;6.830;2022-10-17T11:01:31;18.30;99.90
35645;DHT22;21764;52.042;6.830;2022-10-17T11:06:36;18.30;99.90
35645;DHT22;21764;52.042;6.830;2022-10-17T11:17:23;18.00;99.90
35645;DHT22;21764;52.042;6.830;2022-10-17T11:22:35;18.10;99.90
35645;DHT22;21764;52.042;6.830;2022-10-17T11:27:36;18.30;99.90
35645;DHT22;21764;52.042;6.830;2022-10-17T11:32:49;18.20;99.90
35645;DHT22;21764;52.042;6.830;2022-10-17T11:43:26;18.00;99.90
35645;DHT22;21764;52.042;6.830;2022-10-17T11:48:38;17.80;99.90
35645;DHT22;21764;52.042;6.830;2022-10-17T11:53:55;18.30;99.90
35645;DHT22;21764;52.042;6.830;2022-10-17T12:14:46;19.60;99.90
35645;DHT22;21764;52.042;6.830;2022-10-17T12:19:47;19.20;99.90
35645;DHT22;21764;52.042;6.830;2022-10-17T12:25:01;19.30;99.90
35645;DHT22;21764;52.042;6.830;2022-10-17T12:35:20;19.00;99.90
35645;DHT22;21764;52.042;6.830;2022-10-17T12:45:54;18.70;99.90
35645;DHT22;21764;52.042;6.830;2022-10-17T12:51:18;18.60;99.90
35645;DHT22;21764;52.042;6.830;2022-10-17T12:56:21;18.50;99.90
35645;DHT22;21764;52.042;6.830;2022-10-17T13:01:33;18.60;99.90
35645;DHT22;21764;52.042;6.830;2022-10-17T13:06:42;18.60;99.90
35645;DHT22;21764;52.042;6.830;2022-10-17T13:11:44;18.60;99.90
35645;DHT22;21764;52.042;6.830;2022-10-17T13:17:00;18.50;99.90
35645;DHT22;21764;52.042;6.830;2022-10-17T13:22:02;18.30;99.90
35645;DHT22;21764;52.042;6.830;2022-10-17T13:27:03;18.20;99.90
35645;DHT22;21764;52.042;6.830;2022-10-17T13:32:05;18.20;99.90
35645;DHT22;21764;52.042;6.830;2022-10-17T13:37:10;18.30;99.90
35645;DHT22;21764;52.042;6.830;2022-10-17T13:42:36;18.30;99.90
35645;DHT22;21764;52.042;6.830;2022-10-17T13:47:37;18.30;99.90
35645;DHT22;21764;52.042;6.830;2022-10-17T13:52:38;18.30;99.90
35645;DHT22;21764;52.042;6.830;2022-10-17T13:57:39;18.30;99.90
35645;DHT22;21764;52.042;6.830;2022-10-17T14:02:40;18.40;99.90
35645;DHT22;21764;52.042;6.830;2022-10-17T14:07:53;18.50;99.90
35645;DHT22;21764;52.042;6.830;2022-10-17T14:12:54;18.50;99.90
35645;DHT22;21764;52.042;6.830;2022-10-17T14:18:04;18.40;99.90
35645;DHT22;21764;52.042;6.830;2022-10-17T14:28:29;18.40;99.90
35645;DHT22;21764;52.042;6.830;2022-10-17T14:33:30;18.30;99.90
35645;DHT22;21764;52.042;6.830;2022-10-17T14:38:31;18.20;99.90
35645;DHT22;21764;52.042;6.830;2022-10-17T14:43:32;18.20;99.90
35645;DHT22;21764;52.042;6.830;2022-10-17T14:48:33;18.30;99.90
35645;DHT22;21764;52.042;6.830;2022-10-17T14:53:33;18.30;99.90
35645;DHT22;21764;52.042;6.830;2022-10-17T14:58:34;18.30;99.90
35645;DHT22;21764;52.042;6.830;2022-10-17T15:03:35;18.20;99.90
35645;DHT22;21764;52.042;6.830;2022-10-17T15:08:36;18.10;99.90
35645;DHT22;21764;52.042;6.830;2022-10-17T15:13:37;18.00;99.90
35645;DHT22;21764;52.042;6.830;2022-10-17T15:18:37;17.90;99.90
35645;DHT22;21764;52.042;6.830;2022-10-17T15:23:39;17.90;99.90
35645;DHT22;21764;52.042;6.830;2022-10-17T15:28:39;18.10;99.90
35645;DHT22;21764;52.042;6.830;2022-10-17T15:33:41;18.20;99.90
35645;DHT22;21764;52.042;6.830;2022-10-17T15:38:42;18.20;99.90
35645;DHT22;21764;52.042;6.830;2022-10-17T15:43:42;18.10;99.90
35645;DHT22;21764;52.042;6.830;2022-10-17T15:48:43;18.10;99.90
35645;DHT22;21764;52.042;6.830;2022-10-17T15:53:44;18.00;99.90
35645;DHT22;21764;52.042;6.830;2022-10-17T15:58:45;17.80;99.90
35645;DHT22;21764;52.042;6.830;2022-10-17T16:03:45;17.60;99.90
35645;DHT22;21764;52.042;6.830;2022-10-17T16:08:48;17.50;99.90
35645;DHT22;21764;52.042;6.830;2022-10-17T16:13:51;17.30;99.90
35645;DHT22;21764;52.042;6.830;2022-10-17T16:18:52;17.20;99.90
35645;DHT22;21764;52.042;6.830;2022-10-17T16:23:53;17.10;99.90
35645;DHT22;21764;52.042;6.830;2022-10-17T16:28:54;17.00;99.90
35645;DHT22;21764;52.042;6.830;2022-10-17T16:33:58;16.90;99.90
35645;DHT22;21764;52.042;6.830;2022-10-17T16:39:02;16.90;99.90
35645;DHT22;21764;52.042;6.830;2022-10-17T16:44:09;16.80;99.90
35645;DHT22;21764;52.042;6.830;2022-10-17T16:49:10;16.80;99.90
35645;DHT22;21764;52.042;6.830;2022-10-17T16:54:11;16.70;99.90
35645;DHT22;21764;52.042;6.830;2022-10-17T16:59:12;16.70;99.90
35645;DHT22;21764;52.042;6.830;2022-10-17T17:04:13;16.50;99.90
35645;DHT22;21764;52.042;6.830;2022-10-17T17:09:13;16.50;99.90
35645;DHT22;21764;52.042;6.830;2022-10-17T17:14:14;16.40;99.90
35645;DHT22;21764;52.042;6.830;2022-10-17T17:19:15;16.30;99.90
35645;DHT22;21764;52.042;6.830;2022-10-17T17:24:20;16.30;99.90
35645;DHT22;21764;52.042;6.830;2022-10-17T17:29:21;16.20;99.90
35645;DHT22;21764;52.042;6.830;2022-10-17T17:34:22;16.40;99.90
35645;DHT22;21764;52.042;6.830;2022-10-17T17:39:23;16.30;99.90
35645;DHT22;21764;52.042;6.830;2022-10-17T17:44:24;16.20;99.90
35645;DHT22;21764;52.042;6.830;2022-10-17T17:49:25;16.10;99.90
35645;DHT22;21764;52.042;6.830;2022-10-17T17:54:25;16.10;99.90
35645;DHT22;21764;52.042;6.830;2022-10-17T17:59:26;16.10;99.90
35645;DHT22;21764;52.042;6.830;2022-10-17T18:04:27;16.00;99.90
35645;DHT22;21764;52.042;6.830;2022-10-17T18:09:27;15.80;99.90
35645;DHT22;21764;52.042;6.830;2022-10-17T18:14:28;15.70;99.90
35645;DHT22;21764;52.042;6.830;2022-10-17T18:19:29;15.60;99.90
35645;DHT22;21764;52.042;6.830;2022-10-17T18:24:29;15.70;99.90
35645;DHT22;21764;52.042;6.830;2022-10-17T18:29:30;15.70;99.90
35645;DHT22;21764;52.042;6.830;2022-10-17T18:34:32;15.70;99.90
35645;DHT22;21764;52.042;6.830;2022-10-17T18:39:33;15.60;99.90
35645;DHT22;21764;52.042;6.830;2022-10-17T18:44:33;15.60;99.90
35645;DHT22;21764;52.042;6.830;2022-10-17T18:49:35;15.70;99.90
35645;DHT22;21764;52.042;6.830;2022-10-17T18:54:36;15.70;99.90
35645;DHT22;21764;52.042;6.830;2022-10-17T18:59:36;15.70;99.90
35645;DHT22;21764;52.042;6.830;2022-10-17T19:04:37;15.70;99.90
35645;DHT22;21764;52.042;6.830;2022-10-17T19:09:38;15.70;99.90
35645;DHT22;21764;52.042;6.830;2022-10-17T19:14:38;15.70;99.90
35645;DHT22;21764;52.042;6.830;2022-10-17T19:19:39;15.70;99.90
35645;DHT22;21764;52.042;6.830;2022-10-17T19:24:40;15.70;99.90
35645;DHT22;21764;52.042;6.830;2022-10-17T19:29:40;15.80;99.90
35645;DHT22;21764;52.042;6.830;2022-10-17T19:34:43;15.80;99.90
35645;DHT22;21764;52.042;6.830;2022-10-17T19:39:44;15.80;99.90
35645;DHT22;21764;52.042;6.830;2022-10-17T19:44:44;15.80;99.90
35645;DHT22;21764;52.042;6.830;2022-10-17T19:49:46;15.80;99.90
35645;DHT22;21764;52.042;6.830;2022-10-17T19:54:46;15.80;99.90
35645;DHT22;21764;52.042;6.830;2022-10-17T19:59:48;15.80;99.90
35645;DHT22;21764;52.042;6.830;2022-10-17T20:04:48;15.80;99.90
35645;DHT22;21764;52.042;6.830;2022-10-17T20:09:49;15.70;99.90
35645;DHT22;21764;52.042;6.830;2022-10-17T20:14:50;15.70;99.90
35645;DHT22;21764;52.042;6.830;2022-10-17T20:19:50;15.60;99.90
35645;DHT22;21764;52.042;6.830;2022-10-17T20:24:51;15.60;99.90
35645;DHT22;21764;52.042;6.830;2022-10-17T20:29:52;15.50;99.90
35645;DHT22;21764;52.042;6.830;2022-10-17T20:34:52;15.40;99.90
35645;DHT22;21764;52.042;6.830;2022-10-17T20:39:53;15.40;99.90
35645;DHT22;21764;52.042;6.830;2022-10-17T20:44:54;15.40;99.90
35645;DHT22;21764;52.042;6.830;2022-10-17T20:49:55;15.40;99.90
35645;DHT22;21764;52.042;6.830;2022-10-17T20:54:55;15.40;99.90
35645;DHT22;21764;52.042;6.830;2022-10-17T20:59:56;15.50;99.90
35645;DHT22;21764;52.042;6.830;2022-10-17T21:04:57;15.50;99.90
35645;DHT22;21764;52.042;6.830;2022-10-17T21:09:57;15.40;99.90
35645;DHT22;21764;52.042;6.830;2022-10-17T21:14:58;15.50;99.90
35645;DHT22;21764;52.042;6.830;2022-10-17T21:19:59;15.40;99.90
35645;DHT22;21764;52.042;6.830;2022-10-17T21:25:00;15.40;99.90
35645;DHT22;21764;52.042;6.830;2022-10-17T21:30:01;15.40;99.90
35645;DHT22;21764;52.042;6.830;2022-10-17T21:35:01;15.30;99.90
35645;DHT22;21764;52.042;6.830;2022-10-17T21:40:03;15.30;99.90
35645;DHT22;21764;52.042;6.830;2022-10-17T21:45:05;15.30;99.90
35645;DHT22;21764;52.042;6.830;2022-10-17T21:50:05;15.20;99.90
35645;DHT22;21764;52.042;6.830;2022-10-17T21:55:06;15.20;99.90
35645;DHT22;21764;52.042;6.830;2022-10-17T22:00:08;15.20;99.90
35645;DHT22;21764;52.042;6.830;2022-10-17T22:05:09;15.20;99.90
35645;DHT22;21764;52.042;6.830;2022-10-17T22:10:09;15.30;99.90
35645;DHT22;21764;52.042;6.830;2022-10-17T22:15:10;15.40;99.90
35645;DHT22;21764;52.042;6.830;2022-10-17T22:20:11;15.20;99.90
35645;DHT22;21764;52.042;6.830;2022-10-17T22:25:11;15.20;99.90
35645;DHT22;21764;52.042;6.830;2022-10-17T22:30:15;15.30;99.90
35645;DHT22;21764;52.042;6.830;2022-10-17T22:35:16;15.20;99.90
35645;DHT22;21764;52.042;6.830;2022-10-17T22:40:16;15.20;99.90
35645;DHT22;21764;52.042;6.830;2022-10-17T22:45:17;15.10;99.90
35645;DHT22;21764;52.042;6.830;2022-10-17T22:50:18;15.10;99.90
35645;DHT22;21764;52.042;6.830;2022-10-17T22:55:19;15.10;99.90
35645;DHT22;21764;52.042;6.830;2022-10-17T23:00:19;15.10;99.90
35645;DHT22;21764;52.042;6.830;2022-10-17T23:05:20;15.10;99.90
35645;DHT22;21764;52.042;6.830;2022-10-17T23:10:21;15.20;99.90
35645;DHT22;21764;52.042;6.830;2022-10-17T23:15:21;15.30;99.90
35645;DHT22;21764;52.042;6.830;2022-10-17T23:20:22;15.40;99.90
35645;DHT22;21764;52.042;6.830;2022-10-17T23:25:23;15.40;99.90
35645;DHT22;21764;52.042;6.830;2022-10-17T23:30:24;15.40;99.90
35645;DHT22;21764;52.042;6.830;2022-10-17T23:35:24;15.40;99.90
35645;DHT22;21764;52.042;6.830;2022-10-17T23:40:25;15.30;99.90
35645;DHT22;21764;52.042;6.830;2022-10-17T23:45:26;15.30;99.90
35645;DHT22;21764;52.042;6.830;2022-10-17T23:50:27;15.40;99.90
35645;DHT22;21764;52.042;6.830;2022-10-17T23:55:27;15.40;99.90
